Time;durP1;ratioP1;P1;durP2;ratioP2;P2;SDS_P1;SDS_P2;PMS_P1;PMS_P2;Temp;Humidity;BMP_temperature;BMP_pressure;BME280_temperature;BME280_humidity;BME280_pressure;Samples;Min_cycle;Max_cycle;Signal;HPM_P1;HPM_P2
2023/03/15 00:01:31;;;;;;;3.40;2.75;;;;;;;;;;5068889;28;20312;-75
2023/03/15 00:03:57;;;;;;;0.10;0.10;;;;;;;;;;5069191;28;20029;-72
2023/03/15 00:06:23;;;;;;;1.55;1.20;;;;;;;;;;5067838;28;20494;-73
2023/03/15 00:08:50;;;;;;;2.38;1.50;;;;;;;;;;5069162;28;20520;-72
2023/03/15 00:11:16;;;;;;;0.10;0.10;;;;;;;;;;5069506;28;20059;-71
2023/03/15 00:13:42;;;;;;;0.20;0.20;;;;;;;;;;5068989;28;20068;-73
2023/03/15 00:16:08;;;;;;;0.10;0.10;;;;;;;;;;5067608;28;20432;-73
2023/03/15 00:18:33;;;;;;;0.10;0.10;;;;;;;;;;5069202;28;20116;-72
2023/03/15 00:20:59;;;;;;;0.10;0.10;;;;;;;;;;5069091;28;20028;-72
2023/03/15 00:23:25;;;;;;;1.17;0.50;;;;;;;;;;5068804;28;20180;-71
2023/03/15 00:25:51;;;;;;;0.10;0.10;;;;;;;;;;5069089;28;20040;-73
2023/03/15 00:28:16;;;;;;;0.88;0.88;;;;;;;;;;5068864;28;20040;-73
2023/03/15 00:30:42;;;;;;;0.10;0.10;;;;;;;;;;5067355;28;20082;-74
2023/03/15 00:33:12;;;;;;;0.40;0.40;;;;;;;;;;5053885;28;20046;-73
2023/03/15 00:35:42;;;;;;;0.10;0.10;;;;;;;;;;5071666;28;20434;-73
2023/03/15 00:38:07;;;;;;;0.10;0.10;;;;;;;;;;5058631;28;20115;-73
2023/03/15 00:40:32;;;;;;;0.10;0.10;;;;;;;;;;5075391;28;20459;-73
2023/03/15 00:42:58;;;;;;;0.10;0.10;;;;;;;;;;5076502;28;20041;-73
2023/03/15 00:45:24;;;;;;;0.10;0.10;;;;;;;;;;5076589;28;20036;-73
2023/03/15 00:47:50;;;;;;;0.10;0.10;;;;;;;;;;5076335;28;20032;-73
2023/03/15 00:50:15;;;;;;;0.10;0.10;;;;;;;;;;5076375;28;20540;-73
2023/03/15 00:52:41;;;;;;;0.10;0.10;;;;;;;;;;5074911;28;20040;-73
2023/03/15 00:55:14;;;;;;;0.10;0.10;;;;;;;;;;5076339;28;20468;-74
2023/03/15 00:57:40;;;;;;;0.10;0.10;;;;;;;;;;5058214;28;20040;-73
2023/03/15 01:00:10;;;;;;;0.10;0.10;;;;;;;;;;5076319;28;20081;-73
2023/03/15 01:02:36;;;;;;;0.10;0.10;;;;;;;;;;5075297;28;20032;-73
2023/03/15 01:05:05;;;;;;;0.00;0.00;;;;;;;;;;5075968;28;20419;-72
2023/03/15 01:07:32;;;;;;;0.00;0.00;;;;;;;;;;5075957;28;20032;-73
2023/03/15 01:09:58;;;;;;;0.10;0.10;;;;;;;;;;5075175;28;20396;-71
2023/03/15 01:12:23;;;;;;;0.10;0.10;;;;;;;;;;5076128;28;20043;-71
2023/03/15 01:14:48;;;;;;;0.10;0.10;;;;;;;;;;5076031;28;20029;-72
2023/03/15 01:17:14;;;;;;;0.05;0.05;;;;;;;;;;5074533;28;20024;-72
2023/03/15 01:19:39;;;;;;;0.08;0.08;;;;;;;;;;5074324;28;20115;-72
2023/03/15 01:22:05;;;;;;;0.10;0.10;;;;;;;;;;5057869;28;20533;-71
2023/03/15 01:24:30;;;;;;;0.10;0.10;;;;;;;;;;5074515;28;20077;-71
2023/03/15 01:26:56;;;;;;;0.30;0.30;;;;;;;;;;5075590;28;20086;-69
2023/03/15 01:29:21;;;;;;;0.10;0.10;;;;;;;;;;5074533;28;20043;-69
2023/03/15 01:31:47;;;;;;;0.10;0.10;;;;;;;;;;5074324;28;20124;-71
2023/03/15 01:34:12;;;;;;;0.10;0.10;;;;;;;;;;5075533;28;20026;-72
2023/03/15 01:36:38;;;;;;;0.10;0.10;;;;;;;;;;5057528;28;20110;-72
2023/03/15 01:39:03;;;;;;;0.10;0.10;;;;;;;;;;5074175;28;20056;-71
2023/03/15 01:41:39;;;;;;;0.10;0.10;;;;;;;;;;5074278;28;20488;-72
2023/03/15 01:44:08;;;;;;;0.10;0.10;;;;;;;;;;5074409;28;20063;-73
2023/03/15 01:46:33;;;;;;;1.73;1.63;;;;;;;;;;5075471;28;20123;-72
2023/03/15 01:49:29;;;;;;;0.20;0.20;;;;;;;;;;5073879;28;20093;-72
2023/03/15 01:52:00;;;;;;;0.75;0.65;;;;;;;;;;5073965;28;20040;-71
2023/03/15 01:54:40;;;;;;;0.10;0.10;;;;;;;;;;5072718;28;20032;-72
2023/03/15 01:57:09;;;;;;;0.10;0.10;;;;;;;;;;5094029;28;20126;-73
2023/03/15 01:59:37;;;;;;;0.10;0.10;;;;;;;;;;5093897;28;20040;-72
2023/03/15 02:02:03;;;;;;;0.05;0.05;;;;;;;;;;5094024;28;20032;-72
2023/03/15 02:04:35;;;;;;;0.10;0.10;;;;;;;;;;5095363;28;20035;-72
2023/03/15 02:07:01;;;;;;;0.10;0.10;;;;;;;;;;5095085;28;20153;-73
2023/03/15 02:09:48;;;;;;;0.10;0.10;;;;;;;;;;5077587;28;20035;-72
2023/03/15 02:12:14;;;;;;;0.10;0.10;;;;;;;;;;5095252;28;20042;-72
2023/03/15 02:14:41;;;;;;;0.10;0.10;;;;;;;;;;5095318;28;20501;-72
2023/03/15 02:17:09;;;;;;;0.10;0.10;;;;;;;;;;5093780;28;20028;-71
2023/03/15 02:19:41;;;;;;;0.10;0.10;;;;;;;;;;5094944;28;20077;-71
2023/03/15 02:22:11;;;;;;;0.10;0.10;;;;;;;;;;5094789;28;20042;-70
2023/03/15 02:24:36;;;;;;;0.10;0.10;;;;;;;;;;5093427;28;20495;-72
2023/03/15 02:27:02;;;;;;;0.10;0.10;;;;;;;;;;5094763;28;20107;-71
2023/03/15 02:29:28;;;;;;;1.45;1.35;;;;;;;;;;5094807;28;20476;-73
2023/03/15 02:31:54;;;;;;;0.10;0.10;;;;;;;;;;5093339;28;20035;-73
2023/03/15 02:34:24;;;;;;;0.10;0.10;;;;;;;;;;5093409;28;20046;-70
2023/03/15 02:36:50;;;;;;;0.10;0.10;;;;;;;;;;5094449;28;20543;-73
2023/03/15 02:39:16;;;;;;;0.10;0.10;;;;;;;;;;5093196;28;20051;-73
2023/03/15 02:41:54;;;;;;;0.10;0.10;;;;;;;;;;5094686;28;20032;-73
2023/03/15 02:44:28;;;;;;;0.10;0.10;;;;;;;;;;5091931;28;20435;-73
2023/03/15 02:46:55;;;;;;;0.10;0.10;;;;;;;;;;5092541;28;20557;-73
2023/03/15 02:49:22;;;;;;;0.10;0.10;;;;;;;;;;5092258;28;20059;-73
2023/03/15 02:51:48;;;;;;;0.10;0.10;;;;;;;;;;5090838;28;20035;-73
2023/03/15 02:54:13;;;;;;;0.10;0.10;;;;;;;;;;5090944;28;20032;-72
2023/03/15 02:56:38;;;;;;;0.10;0.10;;;;;;;;;;5092490;28;20104;-72
2023/03/15 02:59:04;;;;;;;14.77;2.25;;;;;;;;;;5093453;28;20097;-72
2023/03/15 03:01:30;;;;;;;0.43;0.40;;;;;;;;;;5092844;28;20044;-71
2023/03/15 03:03:56;;;;;;;0.10;0.10;;;;;;;;;;5094215;28;20032;-71
2023/03/15 03:06:23;;;;;;;0.10;0.10;;;;;;;;;;5092491;28;20067;-71
2023/03/15 03:08:48;;;;;;;3.20;0.63;;;;;;;;;;5092892;28;20064;-71
2023/03/15 03:11:17;;;;;;;9.80;1.35;;;;;;;;;;5092709;28;20441;-71
2023/03/15 03:13:43;;;;;;;0.50;0.40;;;;;;;;;;5092699;28;20035;-71
2023/03/15 03:16:08;;;;;;;0.25;0.25;;;;;;;;;;5094016;28;20032;-72
2023/03/15 03:18:34;;;;;;;0.65;0.63;;;;;;;;;;5092578;28;20115;-72
2023/03/15 03:21:03;;;;;;;0.17;0.17;;;;;;;;;;5092183;28;20135;-72
2023/03/15 03:23:29;;;;;;;0.10;0.10;;;;;;;;;;5093844;28;20376;-72
2023/03/15 03:25:56;;;;;;;0.10;0.10;;;;;;;;;;5075918;28;20039;-72
2023/03/15 03:28:23;;;;;;;0.10;0.10;;;;;;;;;;5093620;28;20031;-72
2023/03/15 03:30:49;;;;;;;0.10;0.10;;;;;;;;;;5075392;28;20463;-70
2023/03/15 03:33:15;;;;;;;0.90;0.90;;;;;;;;;;5092266;28;20035;-71
2023/03/15 03:35:40;;;;;;;0.30;0.30;;;;;;;;;;5093436;28;20035;-71
2023/03/15 03:38:07;;;;;;;0.10;0.10;;;;;;;;;;5092361;28;20081;-74
2023/03/15 03:40:37;;;;;;;0.10;0.10;;;;;;;;;;5092164;28;20035;-72
2023/03/15 03:43:04;;;;;;;0.10;0.10;;;;;;;;;;5092231;28;20114;-73
2023/03/15 03:45:30;;;;;;;0.38;0.38;;;;;;;;;;5091959;28;20517;-73
2023/03/15 03:47:58;;;;;;;0.70;0.70;;;;;;;;;;5092056;28;20387;-71
2023/03/15 03:50:23;;;;;;;2.72;0.90;;;;;;;;;;5091985;28;20024;-71
2023/03/15 03:52:49;;;;;;;0.30;0.30;;;;;;;;;;5093362;28;20594;-71
2023/03/15 03:55:23;;;;;;;0.10;0.10;;;;;;;;;;5092099;28;20442;-71
2023/03/15 03:57:49;;;;;;;0.10;0.10;;;;;;;;;;5091878;28;20036;-71
2023/03/15 04:00:26;;;;;;;0.10;0.10;;;;;;;;;;5091992;28;20483;-71
2023/03/15 04:02:53;;;;;;;0.10;0.10;;;;;;;;;;5088019;28;20090;-70
2023/03/15 04:05:19;;;;;;;0.10;0.10;;;;;;;;;;5087870;28;20024;-71
2023/03/15 04:07:44;;;;;;;0.10;0.10;;;;;;;;;;5090396;28;20062;-71
2023/03/15 04:10:13;;;;;;;0.10;0.10;;;;;;;;;;5092415;28;20043;-70
2023/03/15 04:12:42;;;;;;;0.10;0.10;;;;;;;;;;5092126;28;20036;-70
2023/03/15 04:15:08;;;;;;;0.10;0.10;;;;;;;;;;5092053;28;20085;-70
2023/03/15 04:17:34;;;;;;;0.10;0.10;;;;;;;;;;5093313;28;20417;-70
2023/03/15 04:20:05;;;;;;;0.10;0.10;;;;;;;;;;5093125;28;20040;-70
2023/03/15 04:22:34;;;;;;;0.10;0.10;;;;;;;;;;5074455;28;20051;-71
2023/03/15 04:25:12;;;;;;;0.10;0.10;;;;;;;;;;5091432;28;20089;-72
2023/03/15 04:27:57;;;;;;;0.10;0.10;;;;;;;;;;5092940;28;20040;-72
2023/03/15 04:30:41;;;;;;;0.10;0.10;;;;;;;;;;5091735;28;20534;-72
2023/03/15 04:33:30;;;;;;;;;;;;;;;;;;5089851;28;20105;-72
2023/03/15 04:36:19;;;;;;;0.10;0.10;;;;;;;;;;5092495;28;20431;-71
2023/03/15 04:39:06;;;;;;;0.10;0.10;;;;;;;;;;5092606;28;20044;-72
2023/03/15 04:41:47;;;;;;;0.10;0.10;;;;;;;;;;5092002;28;20036;-72
2023/03/15 04:44:42;;;;;;;0.10;0.10;;;;;;;;;;5091844;28;20131;-71
2023/03/15 04:47:27;;;;;;;0.10;0.10;;;;;;;;;;5091697;28;20403;-70
2023/03/15 04:50:12;;;;;;;0.10;0.10;;;;;;;;;;5091898;28;20116;-71
2023/03/15 04:52:46;;;;;;;0.10;0.10;;;;;;;;;;5092691;28;20036;-71
2023/03/15 04:55:44;;;;;;;0.20;0.20;;;;;;;;;;5091219;28;20044;-70
2023/03/15 04:58:12;;;;;;;0.10;0.10;;;;;;;;;;5092435;28;20044;-72
2023/03/15 05:01:03;;;;;;;0.10;0.10;;;;;;;;;;5099061;28;20136;-70
2023/03/15 05:03:52;;;;;;;0.10;0.10;;;;;;;;;;5091530;28;20568;-70
2023/03/15 05:06:36;;;;;;;0.10;0.10;;;;;;;;;;5092754;28;20093;-70
2023/03/15 05:09:36;;;;;;;0.10;0.10;;;;;;;;;;5091115;28;20054;-73
2023/03/15 05:12:20;;;;;;;0.10;0.10;;;;;;;;;;5091756;28;20051;-71
2023/03/15 05:15:09;;;;;;;0.10;0.10;;;;;;;;;;5081615;28;20495;-70
2023/03/15 05:17:59;;;;;;;0.10;0.10;;;;;;;;;;5070427;28;20032;-73
2023/03/15 05:20:57;;;;;;;0.10;0.10;;;;;;;;;;5092766;28;20067;-73
2023/03/15 05:23:49;;;;;;;0.10;0.10;;;;;;;;;;5070904;28;20083;-74
2023/03/15 05:26:53;;;;;;;0.10;0.10;;;;;;;;;;5090001;28;20114;-73
2023/03/15 05:29:37;;;;;;;0.45;0.45;;;;;;;;;;5072998;28;20087;-73
2023/03/15 05:32:25;;;;;;;0.10;0.10;;;;;;;;;;5070511;28;20123;-74
2023/03/15 05:35:11;;;;;;;0.10;0.10;;;;;;;;;;5070760;28;20052;-74
2023/03/15 05:38:06;;;;;;;0.10;0.10;;;;;;;;;;5070948;28;20051;-74
2023/03/15 05:40:51;;;;;;;0.10;0.10;;;;;;;;;;5071684;28;20048;-72
2023/03/15 05:43:33;;;;;;;0.10;0.10;;;;;;;;;;5071246;28;20037;-72
2023/03/15 05:46:17;;;;;;;0.10;0.10;;;;;;;;;;5071408;28;20089;-72
2023/03/15 05:48:55;;;;;;;0.20;0.20;;;;;;;;;;5071696;28;20037;-73
2023/03/15 05:51:47;;;;;;;0.10;0.10;;;;;;;;;;5070116;28;20039;-72
2023/03/15 05:54:31;;;;;;;0.10;0.10;;;;;;;;;;5075913;28;20090;-73
2023/03/15 05:57:16;;;;;;;0.20;0.20;;;;;;;;;;5075072;28;20376;-72
2023/03/15 05:59:59;;;;;;;0.10;0.10;;;;;;;;;;5091394;28;20047;-72
2023/03/15 06:02:40;;;;;;;0.10;0.10;;;;;;;;;;5091515;28;20122;-73
2023/03/15 06:05:21;;;;;;;0.00;0.00;;;;;;;;;;5075022;28;20039;-74
2023/03/15 06:07:47;;;;;;;0.10;0.10;;;;;;;;;;5086514;28;20051;-74
2023/03/15 06:10:15;;;;;;;0.10;0.10;;;;;;;;;;5079647;28;20028;-73
2023/03/15 06:12:41;;;;;;;1.10;0.55;;;;;;;;;;5087444;28;20384;-72
2023/03/15 06:15:07;;;;;;;0.28;0.28;;;;;;;;;;5083214;28;20028;-71
2023/03/15 06:17:32;;;;;;;0.10;0.10;;;;;;;;;;5085778;28;20058;-72
2023/03/15 06:19:58;;;;;;;2.25;2.13;;;;;;;;;;5088926;28;20531;-70
2023/03/15 06:22:24;;;;;;;0.40;0.40;;;;;;;;;;5088756;28;20043;-73
2023/03/15 06:24:55;;;;;;;0.22;0.20;;;;;;;;;;5089416;28;20048;-74
2023/03/15 06:27:22;;;;;;;0.32;0.32;;;;;;;;;;5083141;28;20047;-72
2023/03/15 06:29:49;;;;;;;0.10;0.10;;;;;;;;;;5070218;28;20052;-71
2023/03/15 06:32:17;;;;;;;0.10;0.10;;;;;;;;;;5069063;28;20074;-72
2023/03/15 06:34:42;;;;;;;0.20;0.20;;;;;;;;;;5069260;28;20044;-73
2023/03/15 06:37:08;;;;;;;0.10;0.10;;;;;;;;;;5068978;28;20067;-72
2023/03/15 06:39:34;;;;;;;0.10;0.10;;;;;;;;;;5068681;28;20452;-72
2023/03/15 06:42:01;;;;;;;0.30;0.30;;;;;;;;;;5069033;28;20032;-71
2023/03/15 06:44:27;;;;;;;0.60;0.60;;;;;;;;;;5067534;28;20040;-71
2023/03/15 06:46:57;;;;;;;0.65;0.60;;;;;;;;;;5066997;28;20119;-72
2023/03/15 06:49:23;;;;;;;0.60;0.60;;;;;;;;;;5067111;28;20124;-72
2023/03/15 06:51:49;;;;;;;4.03;1.15;;;;;;;;;;5066618;28;20044;-72
2023/03/15 06:54:14;;;;;;;0.57;0.57;;;;;;;;;;5066955;28;20040;-73
2023/03/15 06:56:40;;;;;;;0.65;0.60;;;;;;;;;;5050915;28;20464;-72
2023/03/15 06:59:06;;;;;;;0.20;0.20;;;;;;;;;;5069778;28;20491;-72
2023/03/15 07:01:31;;;;;;;3.60;1.75;;;;;;;;;;5069842;28;20025;-72
2023/03/15 07:03:57;;;;;;;1.95;1.85;;;;;;;;;;5069900;28;20038;-71
2023/03/15 07:06:22;;;;;;;0.10;0.10;;;;;;;;;;5071137;28;20433;-72
2023/03/15 07:08:48;;;;;;;2.40;1.23;;;;;;;;;;5068253;28;20040;-72
2023/03/15 07:11:13;;;;;;;0.10;0.10;;;;;;;;;;5051697;28;20086;-72
2023/03/15 07:13:38;;;;;;;0.13;0.13;;;;;;;;;;5068340;28;20388;-71
2023/03/15 07:16:04;;;;;;;2.78;0.38;;;;;;;;;;5069867;28;20028;-72
2023/03/15 07:18:31;;;;;;;0.38;0.38;;;;;;;;;;5069696;28;20048;-72
2023/03/15 07:20:57;;;;;;;0.63;0.38;;;;;;;;;;5070072;28;20032;-72
2023/03/15 07:23:22;;;;;;;2.58;0.57;;;;;;;;;;5067824;28;20045;-74
2023/03/15 07:25:48;;;;;;;0.10;0.10;;;;;;;;;;5069933;28;20131;-72
2023/03/15 07:28:13;;;;;;;0.13;0.13;;;;;;;;;;5069535;28;20043;-71
2023/03/15 07:30:39;;;;;;;0.25;0.25;;;;;;;;;;5069958;28;20032;-72
2023/03/15 07:33:04;;;;;;;0.22;0.22;;;;;;;;;;5069604;28;20036;-71
2023/03/15 07:35:30;;;;;;;0.20;0.20;;;;;;;;;;5068483;28;20086;-71
2023/03/15 07:37:55;;;;;;;0.10;0.10;;;;;;;;;;5069519;28;20056;-71
2023/03/15 07:40:21;;;;;;;0.10;0.10;;;;;;;;;;5069129;28;20020;-72
2023/03/15 07:42:46;;;;;;;0.10;0.10;;;;;;;;;;5068417;28;20392;-72
2023/03/15 07:45:12;;;;;;;0.10;0.10;;;;;;;;;;5051518;28;20078;-72
2023/03/15 07:47:37;;;;;;;0.30;0.30;;;;;;;;;;5069216;28;20040;-71
2023/03/15 07:50:04;;;;;;;0.10;0.10;;;;;;;;;;5069275;28;20027;-72
2023/03/15 07:52:29;;;;;;;1.92;0.43;;;;;;;;;;5069049;28;20460;-72
2023/03/15 07:54:55;;;;;;;0.40;0.40;;;;;;;;;;5069014;28;20033;-71
2023/03/15 07:57:20;;;;;;;0.30;0.30;;;;;;;;;;5068940;28;20037;-72
2023/03/15 07:59:45;;;;;;;0.20;0.20;;;;;;;;;;5069373;28;20107;-72
2023/03/15 08:02:11;;;;;;;0.10;0.10;;;;;;;;;;5069130;28;20029;-71
2023/03/15 08:04:37;;;;;;;1.55;1.45;;;;;;;;;;5074306;28;20075;-71
2023/03/15 08:07:02;;;;;;;0.10;0.10;;;;;;;;;;5078235;28;20372;-71
2023/03/15 08:09:28;;;;;;;0.50;0.50;;;;;;;;;;5069190;28;20074;-71
2023/03/15 08:11:53;;;;;;;0.13;0.13;;;;;;;;;;5068807;28;20057;-70
2023/03/15 08:14:18;;;;;;;1.33;0.50;;;;;;;;;;5068949;28;20507;-71
2023/03/15 08:16:44;;;;;;;0.30;0.30;;;;;;;;;;5069077;28;20028;-70
2023/03/15 08:19:09;;;;;;;2.25;0.32;;;;;;;;;;5068962;28;20059;-70
2023/03/15 08:21:35;;;;;;;0.10;0.10;;;;;;;;;;5077915;28;20379;-69
2023/03/15 08:24:00;;;;;;;0.40;0.40;;;;;;;;;;5069639;28;20079;-70
2023/03/15 08:26:26;;;;;;;0.10;0.10;;;;;;;;;;5088288;28;20035;-73
2023/03/15 08:28:51;;;;;;;0.10;0.10;;;;;;;;;;5087486;28;20044;-73
2023/03/15 08:31:17;;;;;;;0.17;0.17;;;;;;;;;;5082624;28;20016;-73
2023/03/15 08:33:42;;;;;;;0.15;0.15;;;;;;;;;;5085789;28;20097;-74
2023/03/15 08:36:08;;;;;;;0.50;0.50;;;;;;;;;;5089090;28;20036;-74
2023/03/15 08:38:33;;;;;;;0.20;0.20;;;;;;;;;;5087672;28;20036;-73
2023/03/15 08:40:59;;;;;;;1.42;1.33;;;;;;;;;;5079376;28;20032;-72
2023/03/15 08:43:24;;;;;;;0.52;0.52;;;;;;;;;;5087240;28;20024;-74
2023/03/15 08:45:50;;;;;;;0.20;0.20;;;;;;;;;;5079969;28;20395;-73
2023/03/15 08:48:16;;;;;;;0.20;0.20;;;;;;;;;;5068580;28;20036;-74
2023/03/15 08:50:42;;;;;;;1.30;1.00;;;;;;;;;;5067813;28;20028;-72
2023/03/15 08:53:08;;;;;;;0.20;0.20;;;;;;;;;;5082148;28;20535;-73
2023/03/15 08:55:34;;;;;;;0.40;0.40;;;;;;;;;;5072107;28;20119;-74
2023/03/15 08:58:00;;;;;;;0.20;0.20;;;;;;;;;;5072352;28;20098;-74
2023/03/15 09:00:26;;;;;;;0.30;0.20;;;;;;;;;;5082577;28;20036;-73
2023/03/15 09:02:52;;;;;;;0.20;0.20;;;;;;;;;;5090345;28;20036;-74
2023/03/15 09:05:18;;;;;;;0.38;0.38;;;;;;;;;;5085806;28;20051;-72
2023/03/15 09:07:44;;;;;;;0.20;0.20;;;;;;;;;;5083226;28;20024;-73
2023/03/15 09:10:12;;;;;;;1.50;1.45;;;;;;;;;;5081610;28;20032;-74
2023/03/15 09:12:37;;;;;;;0.20;0.20;;;;;;;;;;5089942;28;20052;-73
2023/03/15 09:15:03;;;;;;;0.20;0.20;;;;;;;;;;5084211;28;20059;-74
2023/03/15 09:17:28;;;;;;;1.00;0.93;;;;;;;;;;5070333;28;20063;-74
2023/03/15 09:19:53;;;;;;;0.52;0.35;;;;;;;;;;5069316;28;20032;-73
2023/03/15 09:22:19;;;;;;;0.20;0.20;;;;;;;;;;5071571;28;20021;-74
2023/03/15 09:24:44;;;;;;;0.30;0.30;;;;;;;;;;5071620;28;20547;-74
2023/03/15 09:27:10;;;;;;;0.10;0.10;;;;;;;;;;5070355;28;20031;-74
2023/03/15 09:29:36;;;;;;;0.10;0.10;;;;;;;;;;5071606;28;20121;-74
2023/03/15 09:32:01;;;;;;;1.83;1.48;;;;;;;;;;5077027;28;20110;-73
2023/03/15 09:34:27;;;;;;;0.20;0.20;;;;;;;;;;5088067;28;20528;-73
2023/03/15 09:36:52;;;;;;;0.30;0.30;;;;;;;;;;5086682;28;20035;-72
2023/03/15 09:39:19;;;;;;;0.20;0.20;;;;;;;;;;5082115;28;20032;-73
2023/03/15 09:41:48;;;;;;;0.20;0.20;;;;;;;;;;5089998;28;20032;-74
2023/03/15 09:44:25;;;;;;;0.75;0.47;;;;;;;;;;5091830;28;20020;-74
2023/03/15 09:50:21;;;;;;;0.23;0.23;;;;;;;;;;5090859;28;20105;-75
2023/03/15 09:52:59;;;;;;;0.20;0.20;;;;;;;;;;5091679;28;20031;-75
2023/03/15 09:55:25;;;;;;;0.38;0.30;;;;;;;;;;5091210;28;20032;-73
2023/03/15 09:57:56;;;;;;;0.20;0.20;;;;;;;;;;5090973;28;20024;-73
2023/03/15 10:00:31;;;;;;;0.20;0.20;;;;;;;;;;5091154;28;20116;-74
2023/03/15 10:02:59;;;;;;;0.20;0.20;;;;;;;;;;5091713;28;20046;-74
2023/03/15 10:05:44;;;;;;;0.20;0.20;;;;;;;;;;5091057;28;20036;-74
2023/03/15 10:08:11;;;;;;;0.88;0.38;;;;;;;;;;5091356;28;20043;-74
2023/03/15 10:10:43;;;;;;;0.20;0.20;;;;;;;;;;5090964;28;20430;-75
2023/03/15 10:13:11;;;;;;;0.47;0.47;;;;;;;;;;5091263;28;20036;-74
2023/03/15 10:15:43;;;;;;;0.20;0.20;;;;;;;;;;5090882;28;20028;-73
2023/03/15 10:18:11;;;;;;;0.30;0.30;;;;;;;;;;5090874;28;20127;-74
2023/03/15 10:20:40;;;;;;;0.20;0.20;;;;;;;;;;5092181;28;20035;-73
2023/03/15 10:23:16;;;;;;;0.20;0.20;;;;;;;;;;5091256;28;20536;-74
2023/03/15 10:25:43;;;;;;;0.20;0.20;;;;;;;;;;5091252;28;20067;-71
2023/03/15 10:28:15;;;;;;;0.20;0.20;;;;;;;;;;5078288;28;20036;-74
2023/03/15 10:30:45;;;;;;;0.15;0.15;;;;;;;;;;5071183;28;20361;-74
2023/03/15 10:33:14;;;;;;;0.50;0.50;;;;;;;;;;5070732;28;20044;-74
2023/03/15 10:35:41;;;;;;;0.40;0.40;;;;;;;;;;5070651;28;20435;-74
2023/03/15 10:38:17;;;;;;;0.20;0.20;;;;;;;;;;5070102;28;20052;-72
2023/03/15 10:40:42;;;;;;;0.40;0.40;;;;;;;;;;5070446;28;20032;-72
2023/03/15 10:43:22;;;;;;;0.28;0.22;;;;;;;;;;5070627;28;20052;-74
2023/03/15 10:46:01;;;;;;;0.38;0.38;;;;;;;;;;5080726;28;20130;-74
2023/03/15 10:48:28;;;;;;;0.20;0.20;;;;;;;;;;5075564;28;20040;-74
2023/03/15 10:50:54;;;;;;;0.20;0.20;;;;;;;;;;5070278;28;20121;-73
2023/03/15 10:53:20;;;;;;;0.28;0.28;;;;;;;;;;5089176;28;20127;-74
2023/03/15 10:55:46;;;;;;;0.13;0.13;;;;;;;;;;5071040;28;20480;-74
2023/03/15 10:58:26;;;;;;;0.35;0.30;;;;;;;;;;5070411;28;20032;-74
2023/03/15 11:00:53;;;;;;;0.68;0.65;;;;;;;;;;5076451;28;20028;-74
2023/03/15 11:03:20;;;;;;;0.20;0.20;;;;;;;;;;5088985;28;20039;-74
2023/03/15 11:05:50;;;;;;;0.20;0.20;;;;;;;;;;5087825;28;20068;-78
2023/03/15 11:08:17;;;;;;;0.20;0.20;;;;;;;;;;5069881;28;20390;-76
2023/03/15 11:10:43;;;;;;;0.20;0.20;;;;;;;;;;5086063;28;20158;-75
2023/03/15 11:13:22;;;;;;;0.20;0.20;;;;;;;;;;5068122;28;20500;-72
2023/03/15 11:15:53;;;;;;;0.40;0.35;;;;;;;;;;5068740;28;20070;-75
2023/03/15 11:18:23;;;;;;;0.30;0.30;;;;;;;;;;5068697;28;20036;-75
2023/03/15 11:20:53;;;;;;;0.28;0.25;;;;;;;;;;5069767;28;20029;-77
2023/03/15 11:23:25;;;;;;;0.20;0.20;;;;;;;;;;5079699;28;20036;-72
2023/03/15 11:25:51;;;;;;;0.45;0.35;;;;;;;;;;5083346;28;20387;-73
2023/03/15 11:28:17;;;;;;;0.20;0.20;;;;;;;;;;5088155;28;20040;-73
2023/03/15 11:30:44;;;;;;;0.20;0.20;;;;;;;;;;5088887;28;20570;-73
2023/03/15 11:33:14;;;;;;;0.20;0.20;;;;;;;;;;5088463;28;20126;-73
2023/03/15 11:35:47;;;;;;;1.08;0.70;;;;;;;;;;5089848;28;20124;-73
2023/03/15 11:38:44;;;;;;;0.20;0.20;;;;;;;;;;5089812;28;20039;-72
2023/03/15 11:41:14;;;;;;;0.20;0.20;;;;;;;;;;5071584;28;20116;-75
2023/03/15 11:43:53;;;;;;;0.20;0.20;;;;;;;;;;5089752;28;20031;-76
2023/03/15 11:46:31;;;;;;;0.20;0.20;;;;;;;;;;5089774;28;20438;-74
2023/03/15 11:48:56;;;;;;;0.20;0.20;;;;;;;;;;5086701;28;20044;-74
2023/03/15 11:51:22;;;;;;;0.20;0.20;;;;;;;;;;5090099;28;20119;-75
2023/03/15 11:54:03;;;;;;;0.25;0.25;;;;;;;;;;5088201;28;20114;-75
2023/03/15 11:56:45;;;;;;;0.20;0.20;;;;;;;;;;5068171;28;20063;-73
2023/03/15 11:59:14;;;;;;;0.20;0.20;;;;;;;;;;5074220;28;20024;-77
2023/03/15 12:01:50;;;;;;;0.30;0.30;;;;;;;;;;5087765;28;20395;-76
2023/03/15 12:04:25;;;;;;;0.40;0.30;;;;;;;;;;5089461;28;20032;-80
2023/03/15 12:06:52;;;;;;;0.30;0.30;;;;;;;;;;5088189;28;20562;-75
2023/03/15 12:09:32;;;;;;;0.50;0.28;;;;;;;;;;5089355;28;20036;-77
2023/03/15 12:12:03;;;;;;;0.20;0.20;;;;;;;;;;5089508;28;20028;-77
2023/03/15 12:14:30;;;;;;;0.30;0.30;;;;;;;;;;5089504;28;20032;-74
2023/03/15 12:17:15;;;;;;;0.20;0.20;;;;;;;;;;5084033;28;20028;-74
2023/03/15 12:19:40;;;;;;;0.20;0.20;;;;;;;;;;5067701;28;20047;-76
2023/03/15 12:22:12;;;;;;;0.20;0.20;;;;;;;;;;5067666;28;20065;-75
2023/03/15 12:24:38;;;;;;;0.20;0.20;;;;;;;;;;5067717;28;20115;-74
2023/03/15 12:27:15;;;;;;;0.20;0.20;;;;;;;;;;5071887;28;20461;-76
2023/03/15 12:29:42;;;;;;;1.65;0.40;;;;;;;;;;5071302;28;20076;-76
2023/03/15 12:32:12;;;;;;;0.20;0.20;;;;;;;;;;5083781;28;20047;-76
2023/03/15 12:34:54;;;;;;;0.20;0.20;;;;;;;;;;5092679;28;20031;-73
2023/03/15 12:37:20;;;;;;;0.30;0.30;;;;;;;;;;5091554;28;20078;-76
2023/03/15 12:39:45;;;;;;;0.20;0.20;;;;;;;;;;5093089;28;20059;-76
2023/03/15 12:42:12;;;;;;;0.20;0.20;;;;;;;;;;5091827;28;20321;-75
2023/03/15 12:44:39;;;;;;;0.20;0.20;;;;;;;;;;5091973;28;20035;-76
2023/03/15 12:47:05;;;;;;;0.20;0.20;;;;;;;;;;5091239;28;20035;-76
2023/03/15 12:49:33;;;;;;;0.30;0.30;;;;;;;;;;5092438;28;20032;-76
2023/03/15 12:52:01;;;;;;;0.10;0.10;;;;;;;;;;5092675;28;20031;-75
2023/03/15 12:54:31;;;;;;;0.20;0.20;;;;;;;;;;5092018;28;20051;-75
2023/03/15 12:56:58;;;;;;;0.28;0.28;;;;;;;;;;5091493;28;20039;-76
2023/03/15 12:59:27;;;;;;;0.20;0.20;;;;;;;;;;5090030;28;20103;-73
2023/03/15 13:01:54;;;;;;;0.22;0.22;;;;;;;;;;5092626;28;20391;-73
2023/03/15 13:04:20;;;;;;;0.20;0.20;;;;;;;;;;5085522;28;20028;-75
2023/03/15 13:06:48;;;;;;;0.20;0.20;;;;;;;;;;5091147;28;20433;-76
2023/03/15 13:09:16;;;;;;;0.28;0.28;;;;;;;;;;5088008;28;20044;-75
2023/03/15 13:11:48;;;;;;;0.20;0.20;;;;;;;;;;5081472;28;20070;-76
2023/03/15 13:14:29;;;;;;;0.30;0.30;;;;;;;;;;5074182;28;20368;-76
2023/03/15 13:17:16;;;;;;;0.20;0.20;;;;;;;;;;5091242;28;20032;-76
2023/03/15 13:19:43;;;;;;;0.20;0.20;;;;;;;;;;5092055;28;20024;-76
2023/03/15 13:22:27;;;;;;;0.20;0.20;;;;;;;;;;5092409;28;20039;-77
2023/03/15 13:25:00;;;;;;;10.43;2.80;;;;;;;;;;5092151;28;20055;-76
2023/03/15 13:27:45;;;;;;;0.20;0.20;;;;;;;;;;5091834;28;20044;-76
2023/03/15 13:30:25;;;;;;;0.30;0.30;;;;;;;;;;5092137;28;20036;-77
2023/03/15 13:33:19;;;;;;;0.20;0.20;;;;;;;;;;5092294;28;20044;-76
2023/03/15 13:35:45;;;;;;;0.20;0.20;;;;;;;;;;5092291;28;20038;-76
2023/03/15 13:38:22;;;;;;;0.20;0.20;;;;;;;;;;5092182;28;20391;-77
2023/03/15 13:40:48;;;;;;;0.20;0.20;;;;;;;;;;5090670;28;20035;-75
2023/03/15 13:43:13;;;;;;;0.20;0.20;;;;;;;;;;5092456;28;20040;-77
2023/03/15 13:45:42;;;;;;;0.20;0.20;;;;;;;;;;5091825;28;20357;-78
2023/03/15 13:48:08;;;;;;;0.30;0.30;;;;;;;;;;5091379;28;20559;-74
2023/03/15 13:50:34;;;;;;;0.20;0.20;;;;;;;;;;5091907;28;20103;-79
2023/03/15 13:52:59;;;;;;;0.20;0.20;;;;;;;;;;5090945;28;20039;-79
2023/03/15 13:55:28;;;;;;;0.20;0.20;;;;;;;;;;5091481;28;20068;-78
2023/03/15 13:57:56;;;;;;;0.20;0.20;;;;;;;;;;5090699;28;20482;-79
2023/03/15 14:00:22;;;;;;;0.20;0.20;;;;;;;;;;5091411;28;20058;-79
2023/03/15 14:02:53;;;;;;;0.30;0.30;;;;;;;;;;5091288;28;20035;-78
2023/03/15 14:05:30;;;;;;;0.30;0.30;;;;;;;;;;5091758;28;20660;-76
2023/03/15 14:07:55;;;;;;;0.20;0.20;;;;;;;;;;5091464;28;20043;-79
2023/03/15 14:10:26;;;;;;;0.20;0.20;;;;;;;;;;5091621;28;20028;-80
2023/03/15 14:12:52;;;;;;;1.05;1.05;;;;;;;;;;5090101;28;20476;-80
2023/03/15 14:15:24;;;;;;;0.22;0.20;;;;;;;;;;5091001;28;20028;-81
2023/03/15 14:17:51;;;;;;;1.05;0.30;;;;;;;;;;5090122;28;20093;-79
2023/03/15 14:20:18;;;;;;;0.20;0.20;;;;;;;;;;5073829;28;20680;-78
2023/03/15 14:22:43;;;;;;;0.20;0.20;;;;;;;;;;5070936;28;20591;-78
2023/03/15 14:25:20;;;;;;;0.17;0.17;;;;;;;;;;5073670;28;20047;-78
2023/03/15 14:27:45;;;;;;;0.20;0.20;;;;;;;;;;5082120;28;20032;-76
2023/03/15 14:30:19;;;;;;;0.22;0.22;;;;;;;;;;5078149;28;20040;-77
2023/03/15 14:32:54;;;;;;;0.20;0.20;;;;;;;;;;5070704;28;20041;-77
2023/03/15 14:35:35;;;;;;;0.20;0.20;;;;;;;;;;5074091;28;20385;-78
2023/03/15 14:38:01;;;;;;;0.20;0.20;;;;;;;;;;5072428;28;20054;-77
2023/03/15 14:40:34;;;;;;;0.20;0.20;;;;;;;;;;5089824;28;20034;-76
2023/03/15 14:43:00;;;;;;;0.20;0.20;;;;;;;;;;5080377;28;20376;-74
2023/03/15 14:45:27;;;;;;;0.22;0.22;;;;;;;;;;5083416;28;20032;-77
2023/03/15 14:47:53;;;;;;;0.20;0.20;;;;;;;;;;5074768;28;20036;-81
2023/03/15 14:50:21;;;;;;;0.63;0.43;;;;;;;;;;5075435;28;20130;-77
2023/03/15 14:52:48;;;;;;;0.47;0.47;;;;;;;;;;5070168;28;20036;-78
2023/03/15 14:55:18;;;;;;;0.15;0.15;;;;;;;;;;5070220;28;20031;-77
2023/03/15 14:57:44;;;;;;;0.10;0.10;;;;;;;;;;5070504;28;20032;-75
2023/03/15 15:00:15;;;;;;;0.20;0.20;;;;;;;;;;5071736;28;20574;-78
2023/03/15 15:02:41;;;;;;;0.10;0.10;;;;;;;;;;5078180;28;20031;-77
2023/03/15 15:05:20;;;;;;;0.30;0.30;;;;;;;;;;5089758;28;20032;-77